sensor_id;sensor_type;location;lat;lon;timestamp;P1;durP1;ratioP1;P2;durP2;ratioP2
11048;SDS011;5577;42.706;23.160;2022-08-21T00:02:16;13.57;;;7.27;;
11048;SDS011;5577;42.706;23.160;2022-08-21T00:05:02;10.90;;;7.33;;
11048;SDS011;5577;42.706;23.160;2022-08-21T00:07:47;10.33;;;7.10;;
11048;SDS011;5577;42.706;23.160;2022-08-21T00:10:32;10.77;;;6.50;;
11048;SDS011;5577;42.706;23.160;2022-08-21T00:13:17;9.97;;;6.57;;
11048;SDS011;5577;42.706;23.160;2022-08-21T00:16:03;10.57;;;6.50;;
11048;SDS011;5577;42.706;23.160;2022-08-21T00:18:47;11.20;;;6.73;;
11048;SDS011;5577;42.706;23.160;2022-08-21T00:21:32;10.83;;;6.43;;
11048;SDS011;5577;42.706;23.160;2022-08-21T00:24:18;9.17;;;6.27;;
11048;SDS011;5577;42.706;23.160;2022-08-21T00:27:03;10.93;;;6.63;;
11048;SDS011;5577;42.706;23.160;2022-08-21T00:29:47;9.53;;;6.97;;
11048;SDS011;5577;42.706;23.160;2022-08-21T00:32:31;10.77;;;7.80;;
11048;SDS011;5577;42.706;23.160;2022-08-21T00:35:16;12.50;;;6.77;;
11048;SDS011;5577;42.706;23.160;2022-08-21T00:38:04;11.93;;;7.47;;
11048;SDS011;5577;42.706;23.160;2022-08-21T00:40:51;10.63;;;7.70;;
11048;SDS011;5577;42.706;23.160;2022-08-21T00:43:38;10.77;;;7.83;;
11048;SDS011;5577;42.706;23.160;2022-08-21T00:46:23;14.13;;;7.97;;
11048;SDS011;5577;42.706;23.160;2022-08-21T00:49:09;12.03;;;7.27;;
11048;SDS011;5577;42.706;23.160;2022-08-21T00:51:55;10.90;;;7.63;;
11048;SDS011;5577;42.706;23.160;2022-08-21T00:54:42;12.47;;;7.40;;
11048;SDS011;5577;42.706;23.160;2022-08-21T00:57:29;10.63;;;7.80;;
11048;SDS011;5577;42.706;23.160;2022-08-21T01:00:19;11.20;;;7.37;;
11048;SDS011;5577;42.706;23.160;2022-08-21T01:03:09;10.93;;;7.27;;
11048;SDS011;5577;42.706;23.160;2022-08-21T01:05:55;9.20;;;6.90;;
11048;SDS011;5577;42.706;23.160;2022-08-21T01:08:39;10.20;;;7.30;;
11048;SDS011;5577;42.706;23.160;2022-08-21T01:11:24;12.63;;;7.80;;
11048;SDS011;5577;42.706;23.160;2022-08-21T01:14:09;9.90;;;7.00;;
11048;SDS011;5577;42.706;23.160;2022-08-21T01:16:55;8.10;;;7.30;;
11048;SDS011;5577;42.706;23.160;2022-08-21T01:19:41;13.30;;;7.90;;
11048;SDS011;5577;42.706;23.160;2022-08-21T01:22:26;10.27;;;7.27;;
11048;SDS011;5577;42.706;23.160;2022-08-21T01:25:11;11.37;;;7.00;;
11048;SDS011;5577;42.706;23.160;2022-08-21T01:27:59;8.80;;;6.70;;
11048;SDS011;5577;42.706;23.160;2022-08-21T01:30:48;11.00;;;6.90;;
11048;SDS011;5577;42.706;23.160;2022-08-21T01:33:35;8.10;;;6.97;;
11048;SDS011;5577;42.706;23.160;2022-08-21T01:36:19;10.70;;;6.73;;
11048;SDS011;5577;42.706;23.160;2022-08-21T01:39:05;11.80;;;7.00;;
11048;SDS011;5577;42.706;23.160;2022-08-21T01:41:49;10.90;;;6.80;;
11048;SDS011;5577;42.706;23.160;2022-08-21T01:44:33;10.43;;;6.63;;
11048;SDS011;5577;42.706;23.160;2022-08-21T01:47:17;9.67;;;6.07;;
11048;SDS011;5577;42.706;23.160;2022-08-21T01:50:03;7.13;;;6.23;;
11048;SDS011;5577;42.706;23.160;2022-08-21T01:52:49;11.20;;;5.30;;
11048;SDS011;5577;42.706;23.160;2022-08-21T01:55:33;8.60;;;5.77;;
11048;SDS011;5577;42.706;23.160;2022-08-21T01:58:18;7.70;;;5.90;;
11048;SDS011;5577;42.706;23.160;2022-08-21T02:01:03;9.50;;;5.60;;
11048;SDS011;5577;42.706;23.160;2022-08-21T02:03:47;9.70;;;6.10;;
11048;SDS011;5577;42.706;23.160;2022-08-21T02:06:31;8.27;;;5.50;;
11048;SDS011;5577;42.706;23.160;2022-08-21T02:09:15;10.27;;;5.97;;
11048;SDS011;5577;42.706;23.160;2022-08-21T02:11:59;8.53;;;6.13;;
11048;SDS011;5577;42.706;23.160;2022-08-21T02:14:43;9.10;;;6.87;;
11048;SDS011;5577;42.706;23.160;2022-08-21T02:17:27;11.93;;;6.57;;
11048;SDS011;5577;42.706;23.160;2022-08-21T02:23:08;10.33;;;8.73;;
11048;SDS011;5577;42.706;23.160;2022-08-21T02:25:57;9.93;;;7.87;;
11048;SDS011;5577;42.706;23.160;2022-08-21T02:28:42;8.83;;;6.27;;
11048;SDS011;5577;42.706;23.160;2022-08-21T02:31:27;11.60;;;6.40;;
11048;SDS011;5577;42.706;23.160;2022-08-21T02:34:11;12.70;;;7.30;;
11048;SDS011;5577;42.706;23.160;2022-08-21T02:36:55;11.87;;;7.97;;
11048;SDS011;5577;42.706;23.160;2022-08-21T02:39:39;16.97;;;9.37;;
11048;SDS011;5577;42.706;23.160;2022-08-21T02:42:22;11.60;;;9.07;;
11048;SDS011;5577;42.706;23.160;2022-08-21T02:45:07;14.70;;;10.53;;
11048;SDS011;5577;42.706;23.160;2022-08-21T02:47:55;12.17;;;9.23;;
11048;SDS011;5577;42.706;23.160;2022-08-21T02:50:46;13.33;;;10.17;;
11048;SDS011;5577;42.706;23.160;2022-08-21T02:53:32;15.70;;;9.87;;
11048;SDS011;5577;42.706;23.160;2022-08-21T02:56:18;12.33;;;9.07;;
11048;SDS011;5577;42.706;23.160;2022-08-21T02:59:04;12.13;;;9.07;;
11048;SDS011;5577;42.706;23.160;2022-08-21T03:01:47;12.77;;;9.40;;
11048;SDS011;5577;42.706;23.160;2022-08-21T03:04:31;19.57;;;9.53;;
11048;SDS011;5577;42.706;23.160;2022-08-21T03:07:16;17.17;;;9.70;;
11048;SDS011;5577;42.706;23.160;2022-08-21T03:10:00;20.30;;;10.23;;
11048;SDS011;5577;42.706;23.160;2022-08-21T03:12:44;15.87;;;9.90;;
11048;SDS011;5577;42.706;23.160;2022-08-21T03:15:29;19.80;;;11.57;;
11048;SDS011;5577;42.706;23.160;2022-08-21T03:18:14;15.23;;;10.87;;
11048;SDS011;5577;42.706;23.160;2022-08-21T03:20:59;12.43;;;10.57;;
11048;SDS011;5577;42.706;23.160;2022-08-21T03:23:43;13.40;;;9.87;;
11048;SDS011;5577;42.706;23.160;2022-08-21T03:26:27;21.67;;;11.23;;
11048;SDS011;5577;42.706;23.160;2022-08-21T03:29:12;16.47;;;11.10;;
11048;SDS011;5577;42.706;23.160;2022-08-21T03:31:55;15.63;;;10.43;;
11048;SDS011;5577;42.706;23.160;2022-08-21T03:34:40;13.13;;;10.07;;
11048;SDS011;5577;42.706;23.160;2022-08-21T03:37:23;11.47;;;9.63;;
11048;SDS011;5577;42.706;23.160;2022-08-21T03:40:08;16.03;;;9.07;;
11048;SDS011;5577;42.706;23.160;2022-08-21T03:42:53;9.97;;;8.53;;
11048;SDS011;5577;42.706;23.160;2022-08-21T03:45:37;33.97;;;9.73;;
11048;SDS011;5577;42.706;23.160;2022-08-21T03:48:22;14.20;;;9.80;;
11048;SDS011;5577;42.706;23.160;2022-08-21T03:51:07;14.97;;;9.90;;
11048;SDS011;5577;42.706;23.160;2022-08-21T03:53:51;14.20;;;9.20;;
11048;SDS011;5577;42.706;23.160;2022-08-21T03:56:35;13.13;;;8.77;;
11048;SDS011;5577;42.706;23.160;2022-08-21T03:59:19;13.03;;;8.93;;
11048;SDS011;5577;42.706;23.160;2022-08-21T04:02:04;11.47;;;8.50;;
11048;SDS011;5577;42.706;23.160;2022-08-21T04:04:50;10.53;;;7.33;;
11048;SDS011;5577;42.706;23.160;2022-08-21T04:07:34;12.77;;;8.30;;
11048;SDS011;5577;42.706;23.160;2022-08-21T04:10:19;14.83;;;8.40;;
11048;SDS011;5577;42.706;23.160;2022-08-21T04:13:04;11.87;;;8.20;;
11048;SDS011;5577;42.706;23.160;2022-08-21T04:15:49;12.57;;;8.07;;
11048;SDS011;5577;42.706;23.160;2022-08-21T04:18:33;11.10;;;7.80;;
11048;SDS011;5577;42.706;23.160;2022-08-21T04:21:17;10.03;;;7.13;;
11048;SDS011;5577;42.706;23.160;2022-08-21T04:24:01;12.47;;;7.33;;
11048;SDS011;5577;42.706;23.160;2022-08-21T04:26:46;12.07;;;7.50;;
11048;SDS011;5577;42.706;23.160;2022-08-21T04:29:30;12.90;;;7.30;;
11048;SDS011;5577;42.706;23.160;2022-08-21T04:32:20;9.13;;;7.07;;
11048;SDS011;5577;42.706;23.160;2022-08-21T04:35:08;11.00;;;7.47;;
11048;SDS011;5577;42.706;23.160;2022-08-21T04:37:54;10.80;;;7.37;;
11048;SDS011;5577;42.706;23.160;2022-08-21T04:40:38;15.43;;;9.30;;
11048;SDS011;5577;42.706;23.160;2022-08-21T04:43:22;12.30;;;9.20;;
11048;SDS011;5577;42.706;23.160;2022-08-21T04:46:06;15.77;;;9.77;;
11048;SDS011;5577;42.706;23.160;2022-08-21T04:48:50;11.10;;;9.43;;
11048;SDS011;5577;42.706;23.160;2022-08-21T04:51:35;13.47;;;9.43;;
11048;SDS011;5577;42.706;23.160;2022-08-21T04:54:21;15.47;;;8.33;;
11048;SDS011;5577;42.706;23.160;2022-08-21T04:57:06;13.27;;;9.13;;
11048;SDS011;5577;42.706;23.160;2022-08-21T04:59:53;13.50;;;8.87;;
11048;SDS011;5577;42.706;23.160;2022-08-21T05:02:38;15.87;;;10.40;;
11048;SDS011;5577;42.706;23.160;2022-08-21T05:05:24;14.67;;;11.03;;
11048;SDS011;5577;42.706;23.160;2022-08-21T05:08:08;16.57;;;10.80;;
11048;SDS011;5577;42.706;23.160;2022-08-21T05:10:57;18.60;;;10.93;;
11048;SDS011;5577;42.706;23.160;2022-08-21T05:13:42;15.47;;;9.90;;
11048;SDS011;5577;42.706;23.160;2022-08-21T05:16:26;14.67;;;10.00;;
11048;SDS011;5577;42.706;23.160;2022-08-21T05:19:10;15.23;;;10.47;;
11048;SDS011;5577;42.706;23.160;2022-08-21T05:21:55;16.20;;;11.13;;
11048;SDS011;5577;42.706;23.160;2022-08-21T05:24:39;19.80;;;13.10;;
11048;SDS011;5577;42.706;23.160;2022-08-21T05:27:23;23.27;;;14.27;;
11048;SDS011;5577;42.706;23.160;2022-08-21T05:30:07;25.33;;;15.07;;
11048;SDS011;5577;42.706;23.160;2022-08-21T05:45:36;32.27;;;19.83;;
11048;SDS011;5577;42.706;23.160;2022-08-21T05:48:22;25.60;;;17.00;;
11048;SDS011;5577;42.706;23.160;2022-08-21T05:51:10;30.97;;;17.37;;
11048;SDS011;5577;42.706;23.160;2022-08-21T05:53:55;23.07;;;15.17;;
11048;SDS011;5577;42.706;23.160;2022-08-21T05:56:39;21.97;;;14.30;;
11048;SDS011;5577;42.706;23.160;2022-08-21T05:59:23;26.03;;;16.67;;
11048;SDS011;5577;42.706;23.160;2022-08-21T06:02:07;24.63;;;15.93;;
11048;SDS011;5577;42.706;23.160;2022-08-21T06:04:55;26.77;;;16.50;;
11048;SDS011;5577;42.706;23.160;2022-08-21T06:07:41;24.63;;;14.87;;
11048;SDS011;5577;42.706;23.160;2022-08-21T06:10:25;24.93;;;15.43;;
11048;SDS011;5577;42.706;23.160;2022-08-21T06:13:09;24.43;;;15.57;;
11048;SDS011;5577;42.706;23.160;2022-08-21T06:19:08;26.50;;;16.70;;
11048;SDS011;5577;42.706;23.160;2022-08-21T06:21:52;25.53;;;15.57;;
11048;SDS011;5577;42.706;23.160;2022-08-21T06:24:36;26.30;;;16.57;;
11048;SDS011;5577;42.706;23.160;2022-08-21T06:27:20;25.77;;;16.63;;
11048;SDS011;5577;42.706;23.160;2022-08-21T06:30:04;26.80;;;16.43;;
11048;SDS011;5577;42.706;23.160;2022-08-21T06:32:49;24.07;;;15.20;;
11048;SDS011;5577;42.706;23.160;2022-08-21T06:35:33;19.67;;;12.80;;
11048;SDS011;5577;42.706;23.160;2022-08-21T06:38:18;18.60;;;12.17;;
11048;SDS011;5577;42.706;23.160;2022-08-21T06:41:03;16.03;;;10.53;;
11048;SDS011;5577;42.706;23.160;2022-08-21T06:43:47;16.43;;;11.47;;
11048;SDS011;5577;42.706;23.160;2022-08-21T06:46:31;17.03;;;11.63;;
11048;SDS011;5577;42.706;23.160;2022-08-21T06:49:15;16.67;;;11.00;;
11048;SDS011;5577;42.706;23.160;2022-08-21T06:52:00;14.93;;;10.40;;
11048;SDS011;5577;42.706;23.160;2022-08-21T06:54:44;15.40;;;11.77;;
11048;SDS011;5577;42.706;23.160;2022-08-21T06:57:29;17.30;;;11.20;;
11048;SDS011;5577;42.706;23.160;2022-08-21T07:00:13;12.67;;;9.10;;
11048;SDS011;5577;42.706;23.160;2022-08-21T07:02:57;13.60;;;8.37;;
11048;SDS011;5577;42.706;23.160;2022-08-21T07:05:42;12.43;;;7.90;;
11048;SDS011;5577;42.706;23.160;2022-08-21T07:08:26;10.43;;;7.47;;
11048;SDS011;5577;42.706;23.160;2022-08-21T07:11:12;11.00;;;7.30;;
11048;SDS011;5577;42.706;23.160;2022-08-21T07:14:00;14.40;;;7.77;;
11048;SDS011;5577;42.706;23.160;2022-08-21T07:16:45;11.03;;;8.20;;
11048;SDS011;5577;42.706;23.160;2022-08-21T07:19:30;15.03;;;8.20;;
11048;SDS011;5577;42.706;23.160;2022-08-21T07:22:13;13.63;;;8.40;;
11048;SDS011;5577;42.706;23.160;2022-08-21T07:25:00;13.67;;;9.40;;
11048;SDS011;5577;42.706;23.160;2022-08-21T07:27:44;11.97;;;7.97;;
11048;SDS011;5577;42.706;23.160;2022-08-21T07:30:28;12.37;;;8.17;;
11048;SDS011;5577;42.706;23.160;2022-08-21T07:33:12;10.97;;;7.37;;
11048;SDS011;5577;42.706;23.160;2022-08-21T07:35:56;10.77;;;6.40;;
11048;SDS011;5577;42.706;23.160;2022-08-21T07:38:40;10.77;;;6.27;;
11048;SDS011;5577;42.706;23.160;2022-08-21T07:41:26;8.93;;;7.30;;
11048;SDS011;5577;42.706;23.160;2022-08-21T07:44:12;8.37;;;5.90;;
11048;SDS011;5577;42.706;23.160;2022-08-21T07:46:56;8.13;;;5.47;;
11048;SDS011;5577;42.706;23.160;2022-08-21T07:49:41;11.77;;;8.80;;
11048;SDS011;5577;42.706;23.160;2022-08-21T07:52:25;12.13;;;8.57;;
11048;SDS011;5577;42.706;23.160;2022-08-21T07:55:11;12.40;;;8.47;;
11048;SDS011;5577;42.706;23.160;2022-08-21T07:57:59;11.93;;;6.63;;
11048;SDS011;5577;42.706;23.160;2022-08-21T08:00:43;11.57;;;8.67;;
11048;SDS011;5577;42.706;23.160;2022-08-21T08:03:27;13.63;;;9.70;;
11048;SDS011;5577;42.706;23.160;2022-08-21T08:06:11;13.67;;;9.10;;
11048;SDS011;5577;42.706;23.160;2022-08-21T08:09:00;11.17;;;8.77;;
11048;SDS011;5577;42.706;23.160;2022-08-21T08:11:46;14.20;;;9.80;;
11048;SDS011;5577;42.706;23.160;2022-08-21T08:14:30;12.37;;;9.23;;
11048;SDS011;5577;42.706;23.160;2022-08-21T08:17:14;14.27;;;9.40;;
11048;SDS011;5577;42.706;23.160;2022-08-21T08:19:59;11.67;;;9.73;;
11048;SDS011;5577;42.706;23.160;2022-08-21T08:22:46;12.47;;;10.00;;
11048;SDS011;5577;42.706;23.160;2022-08-21T08:25:31;13.07;;;10.07;;
11048;SDS011;5577;42.706;23.160;2022-08-21T08:28:15;14.30;;;10.67;;
11048;SDS011;5577;42.706;23.160;2022-08-21T08:30:59;12.83;;;10.37;;
11048;SDS011;5577;42.706;23.160;2022-08-21T08:33:44;13.13;;;9.40;;
11048;SDS011;5577;42.706;23.160;2022-08-21T08:36:32;15.67;;;10.73;;
11048;SDS011;5577;42.706;23.160;2022-08-21T08:39:18;14.47;;;11.13;;
11048;SDS011;5577;42.706;23.160;2022-08-21T08:42:12;15.10;;;10.63;;
11048;SDS011;5577;42.706;23.160;2022-08-21T08:45:04;12.83;;;10.43;;
11048;SDS011;5577;42.706;23.160;2022-08-21T08:47:53;12.67;;;10.30;;
11048;SDS011;5577;42.706;23.160;2022-08-21T08:53:33;15.37;;;10.43;;
11048;SDS011;5577;42.706;23.160;2022-08-21T08:56:30;13.53;;;10.17;;
11048;SDS011;5577;42.706;23.160;2022-08-21T08:59:20;15.17;;;9.47;;
11048;SDS011;5577;42.706;23.160;2022-08-21T09:02:10;12.93;;;9.47;;
11048;SDS011;5577;42.706;23.160;2022-08-21T09:04:56;11.30;;;8.73;;
11048;SDS011;5577;42.706;23.160;2022-08-21T09:14:06;12.50;;;8.57;;
11048;SDS011;5577;42.706;23.160;2022-08-21T09:23:36;9.40;;;8.50;;
11048;SDS011;5577;42.706;23.160;2022-08-21T09:26:41;12.17;;;8.20;;
11048;SDS011;5577;42.706;23.160;2022-08-21T09:29:36;9.83;;;8.87;;
11048;SDS011;5577;42.706;23.160;2022-08-21T09:32:24;11.73;;;8.70;;
11048;SDS011;5577;42.706;23.160;2022-08-21T09:35:14;11.43;;;9.53;;
11048;SDS011;5577;42.706;23.160;2022-08-21T09:38:03;14.37;;;9.73;;
11048;SDS011;5577;42.706;23.160;2022-08-21T09:40:55;11.00;;;9.20;;
11048;SDS011;5577;42.706;23.160;2022-08-21T09:43:51;13.37;;;9.57;;
11048;SDS011;5577;42.706;23.160;2022-08-21T09:46:37;10.80;;;9.40;;
11048;SDS011;5577;42.706;23.160;2022-08-21T09:49:31;13.70;;;9.20;;
11048;SDS011;5577;42.706;23.160;2022-08-21T09:52:22;14.70;;;9.80;;
11048;SDS011;5577;42.706;23.160;2022-08-21T09:55:08;11.07;;;9.73;;
11048;SDS011;5577;42.706;23.160;2022-08-21T09:58:29;11.30;;;9.60;;
11048;SDS011;5577;42.706;23.160;2022-08-21T10:01:20;11.30;;;9.27;;
11048;SDS011;5577;42.706;23.160;2022-08-21T10:04:09;11.33;;;9.80;;
11048;SDS011;5577;42.706;23.160;2022-08-21T10:06:54;11.77;;;9.80;;
11048;SDS011;5577;42.706;23.160;2022-08-21T10:09:38;12.27;;;9.23;;
11048;SDS011;5577;42.706;23.160;2022-08-21T10:12:25;10.10;;;9.00;;
11048;SDS011;5577;42.706;23.160;2022-08-21T10:15:27;10.87;;;8.97;;
11048;SDS011;5577;42.706;23.160;2022-08-21T10:36:25;13.77;;;9.23;;
11048;SDS011;5577;42.706;23.160;2022-08-21T10:39:27;10.20;;;7.97;;
11048;SDS011;5577;42.706;23.160;2022-08-21T10:47:57;10.63;;;8.00;;
11048;SDS011;5577;42.706;23.160;2022-08-21T10:50:50;10.53;;;7.83;;
11048;SDS011;5577;42.706;23.160;2022-08-21T10:56:31;11.27;;;7.50;;
11048;SDS011;5577;42.706;23.160;2022-08-21T11:02:32;11.00;;;8.63;;
11048;SDS011;5577;42.706;23.160;2022-08-21T11:08:44;10.80;;;7.37;;
11048;SDS011;5577;42.706;23.160;2022-08-21T11:14:39;8.90;;;7.87;;
11048;SDS011;5577;42.706;23.160;2022-08-21T11:17:41;12.00;;;7.83;;
11048;SDS011;5577;42.706;23.160;2022-08-21T11:23:43;9.37;;;7.77;;
11048;SDS011;5577;42.706;23.160;2022-08-21T11:26:34;11.83;;;8.23;;
11048;SDS011;5577;42.706;23.160;2022-08-21T11:29:44;11.57;;;7.50;;
11048;SDS011;5577;42.706;23.160;2022-08-21T11:39:44;9.47;;;7.07;;
11048;SDS011;5577;42.706;23.160;2022-08-21T11:45:22;9.17;;;6.87;;
11048;SDS011;5577;42.706;23.160;2022-08-21T11:48:18;9.17;;;6.90;;
11048;SDS011;5577;42.706;23.160;2022-08-21T11:51:22;9.27;;;7.10;;
11048;SDS011;5577;42.706;23.160;2022-08-21T11:54:39;10.10;;;7.27;;
11048;SDS011;5577;42.706;23.160;2022-08-21T11:57:34;7.90;;;6.73;;
11048;SDS011;5577;42.706;23.160;2022-08-21T12:00:59;10.17;;;7.37;;
11048;SDS011;5577;42.706;23.160;2022-08-21T12:03:53;9.97;;;7.13;;
11048;SDS011;5577;42.706;23.160;2022-08-21T12:06:46;10.57;;;7.50;;
11048;SDS011;5577;42.706;23.160;2022-08-21T12:09:34;11.07;;;7.50;;
11048;SDS011;5577;42.706;23.160;2022-08-21T12:18:06;10.13;;;7.47;;
11048;SDS011;5577;42.706;23.160;2022-08-21T12:21:05;9.87;;;7.37;;
11048;SDS011;5577;42.706;23.160;2022-08-21T12:27:00;10.40;;;6.90;;
11048;SDS011;5577;42.706;23.160;2022-08-21T12:30:19;10.93;;;7.70;;
11048;SDS011;5577;42.706;23.160;2022-08-21T12:33:28;9.13;;;6.20;;
11048;SDS011;5577;42.706;23.160;2022-08-21T12:36:17;9.93;;;5.90;;
11048;SDS011;5577;42.706;23.160;2022-08-21T12:39:11;7.00;;;5.87;;
11048;SDS011;5577;42.706;23.160;2022-08-21T12:45:05;9.47;;;6.03;;
11048;SDS011;5577;42.706;23.160;2022-08-21T12:48:04;9.00;;;5.90;;
11048;SDS011;5577;42.706;23.160;2022-08-21T12:54:00;7.70;;;5.97;;
11048;SDS011;5577;42.706;23.160;2022-08-21T12:56:44;9.63;;;6.10;;
11048;SDS011;5577;42.706;23.160;2022-08-21T12:59:40;7.87;;;6.13;;
11048;SDS011;5577;42.706;23.160;2022-08-21T13:02:35;8.50;;;5.97;;
11048;SDS011;5577;42.706;23.160;2022-08-21T13:05:35;9.83;;;5.80;;
11048;SDS011;5577;42.706;23.160;2022-08-21T13:08:21;7.50;;;5.47;;
11048;SDS011;5577;42.706;23.160;2022-08-21T13:11:08;6.70;;;5.17;;
11048;SDS011;5577;42.706;23.160;2022-08-21T13:13:54;8.40;;;5.83;;
11048;SDS011;5577;42.706;23.160;2022-08-21T13:16:38;6.43;;;5.77;;
11048;SDS011;5577;42.706;23.160;2022-08-21T13:19:23;8.43;;;6.30;;
11048;SDS011;5577;42.706;23.160;2022-08-21T13:22:13;8.27;;;6.10;;
11048;SDS011;5577;42.706;23.160;2022-08-21T13:24:58;8.17;;;5.50;;
11048;SDS011;5577;42.706;23.160;2022-08-21T13:27:43;8.27;;;5.50;;
11048;SDS011;5577;42.706;23.160;2022-08-21T13:30:31;7.10;;;5.97;;
11048;SDS011;5577;42.706;23.160;2022-08-21T13:33:21;6.40;;;5.40;;
11048;SDS011;5577;42.706;23.160;2022-08-21T13:36:19;8.90;;;5.83;;
11048;SDS011;5577;42.706;23.160;2022-08-21T13:39:09;7.67;;;5.70;;
11048;SDS011;5577;42.706;23.160;2022-08-21T13:41:56;5.60;;;5.03;;
11048;SDS011;5577;42.706;23.160;2022-08-21T13:44:43;8.77;;;5.47;;
11048;SDS011;5577;42.706;23.160;2022-08-21T13:47:29;8.90;;;5.63;;
11048;SDS011;5577;42.706;23.160;2022-08-21T13:50:13;7.83;;;5.60;;
11048;SDS011;5577;42.706;23.160;2022-08-21T13:53:00;10.60;;;5.60;;
11048;SDS011;5577;42.706;23.160;2022-08-21T13:55:46;7.50;;;5.17;;
11048;SDS011;5577;42.706;23.160;2022-08-21T13:58:43;8.47;;;5.33;;
11048;SDS011;5577;42.706;23.160;2022-08-21T14:04:39;8.40;;;5.23;;
11048;SDS011;5577;42.706;23.160;2022-08-21T14:07:35;6.33;;;5.37;;
11048;SDS011;5577;42.706;23.160;2022-08-21T14:10:23;5.90;;;4.80;;
11048;SDS011;5577;42.706;23.160;2022-08-21T14:13:47;7.43;;;5.37;;
11048;SDS011;5577;42.706;23.160;2022-08-21T14:16:27;5.93;;;5.27;;
11048;SDS011;5577;42.706;23.160;2022-08-21T14:19:34;6.47;;;5.27;;
11048;SDS011;5577;42.706;23.160;2022-08-21T14:22:29;9.03;;;5.93;;
11048;SDS011;5577;42.706;23.160;2022-08-21T14:31:32;13.43;;;7.30;;
11048;SDS011;5577;42.706;23.160;2022-08-21T14:34:17;9.20;;;7.30;;
11048;SDS011;5577;42.706;23.160;2022-08-21T14:37:01;9.10;;;7.40;;
11048;SDS011;5577;42.706;23.160;2022-08-21T14:39:45;10.53;;;7.60;;
11048;SDS011;5577;42.706;23.160;2022-08-21T14:42:30;8.50;;;7.60;;
11048;SDS011;5577;42.706;23.160;2022-08-21T14:45:19;9.63;;;7.50;;
11048;SDS011;5577;42.706;23.160;2022-08-21T14:48:07;10.07;;;8.37;;
11048;SDS011;5577;42.706;23.160;2022-08-21T14:50:51;10.37;;;7.90;;
11048;SDS011;5577;42.706;23.160;2022-08-21T14:53:35;11.67;;;8.23;;
11048;SDS011;5577;42.706;23.160;2022-08-21T14:56:19;12.00;;;7.70;;
11048;SDS011;5577;42.706;23.160;2022-08-21T14:59:05;9.43;;;7.67;;
11048;SDS011;5577;42.706;23.160;2022-08-21T15:01:50;10.10;;;7.80;;
11048;SDS011;5577;42.706;23.160;2022-08-21T15:04:34;11.20;;;8.23;;
11048;SDS011;5577;42.706;23.160;2022-08-21T15:07:19;9.80;;;7.60;;
11048;SDS011;5577;42.706;23.160;2022-08-21T15:10:03;9.77;;;8.00;;
11048;SDS011;5577;42.706;23.160;2022-08-21T15:12:48;8.87;;;8.00;;
11048;SDS011;5577;42.706;23.160;2022-08-21T15:15:34;11.80;;;7.70;;
11048;SDS011;5577;42.706;23.160;2022-08-21T15:18:24;9.63;;;8.50;;
11048;SDS011;5577;42.706;23.160;2022-08-21T15:21:11;8.40;;;6.63;;
11048;SDS011;5577;42.706;23.160;2022-08-21T15:23:55;7.17;;;6.47;;
11048;SDS011;5577;42.706;23.160;2022-08-21T15:26:39;7.13;;;6.10;;
11048;SDS011;5577;42.706;23.160;2022-08-21T15:29:23;9.00;;;5.80;;
11048;SDS011;5577;42.706;23.160;2022-08-21T15:35:03;8.43;;;5.73;;
11048;SDS011;5577;42.706;23.160;2022-08-21T15:37:47;8.23;;;5.73;;
11048;SDS011;5577;42.706;23.160;2022-08-21T15:40:31;7.30;;;5.63;;
11048;SDS011;5577;42.706;23.160;2022-08-21T15:43:21;8.57;;;6.07;;
11048;SDS011;5577;42.706;23.160;2022-08-21T15:46:11;8.13;;;5.70;;
11048;SDS011;5577;42.706;23.160;2022-08-21T15:48:57;7.50;;;5.97;;
11048;SDS011;5577;42.706;23.160;2022-08-21T15:51:41;8.37;;;5.97;;
11048;SDS011;5577;42.706;23.160;2022-08-21T15:54:26;7.70;;;5.90;;
11048;SDS011;5577;42.706;23.160;2022-08-21T15:57:14;8.93;;;5.83;;
11048;SDS011;5577;42.706;23.160;2022-08-21T16:00:03;7.87;;;5.97;;
11048;SDS011;5577;42.706;23.160;2022-08-21T16:02:56;9.13;;;6.10;;
11048;SDS011;5577;42.706;23.160;2022-08-21T16:05:42;9.93;;;6.10;;
11048;SDS011;5577;42.706;23.160;2022-08-21T16:08:27;11.67;;;6.90;;
11048;SDS011;5577;42.706;23.160;2022-08-21T16:11:11;7.37;;;6.10;;
11048;SDS011;5577;42.706;23.160;2022-08-21T16:13:57;8.37;;;6.30;;
11048;SDS011;5577;42.706;23.160;2022-08-21T16:16:42;9.47;;;6.50;;
11048;SDS011;5577;42.706;23.160;2022-08-21T16:19:27;7.97;;;5.77;;
11048;SDS011;5577;42.706;23.160;2022-08-21T16:22:12;8.53;;;6.43;;
11048;SDS011;5577;42.706;23.160;2022-08-21T16:24:56;10.17;;;5.90;;
11048;SDS011;5577;42.706;23.160;2022-08-21T16:27:41;8.47;;;6.00;;
11048;SDS011;5577;42.706;23.160;2022-08-21T16:30:29;9.90;;;6.00;;
11048;SDS011;5577;42.706;23.160;2022-08-21T16:33:21;7.30;;;6.20;;
11048;SDS011;5577;42.706;23.160;2022-08-21T16:36:16;8.57;;;6.60;;
11048;SDS011;5577;42.706;23.160;2022-08-21T16:39:00;8.53;;;6.60;;
11048;SDS011;5577;42.706;23.160;2022-08-21T16:41:45;8.60;;;7.03;;
11048;SDS011;5577;42.706;23.160;2022-08-21T16:44:32;11.13;;;7.40;;
11048;SDS011;5577;42.706;23.160;2022-08-21T16:47:17;10.17;;;8.03;;
11048;SDS011;5577;42.706;23.160;2022-08-21T16:50:02;10.60;;;7.97;;
11048;SDS011;5577;42.706;23.160;2022-08-21T16:52:48;11.77;;;9.03;;
11048;SDS011;5577;42.706;23.160;2022-08-21T16:55:33;9.30;;;8.33;;
11048;SDS011;5577;42.706;23.160;2022-08-21T16:58:26;12.27;;;8.67;;
11048;SDS011;5577;42.706;23.160;2022-08-21T17:01:12;11.80;;;8.93;;
11048;SDS011;5577;42.706;23.160;2022-08-21T17:04:02;9.83;;;8.93;;
11048;SDS011;5577;42.706;23.160;2022-08-21T17:06:47;11.43;;;9.33;;
11048;SDS011;5577;42.706;23.160;2022-08-21T17:09:31;13.40;;;9.10;;
11048;SDS011;5577;42.706;23.160;2022-08-21T17:12:15;11.43;;;9.20;;
11048;SDS011;5577;42.706;23.160;2022-08-21T17:15:00;10.90;;;8.67;;
11048;SDS011;5577;42.706;23.160;2022-08-21T17:17:48;11.60;;;9.47;;
11048;SDS011;5577;42.706;23.160;2022-08-21T17:20:33;14.20;;;10.47;;
11048;SDS011;5577;42.706;23.160;2022-08-21T17:23:17;12.77;;;9.63;;
11048;SDS011;5577;42.706;23.160;2022-08-21T17:26:02;13.57;;;10.20;;
11048;SDS011;5577;42.706;23.160;2022-08-21T17:28:46;11.67;;;9.93;;
11048;SDS011;5577;42.706;23.160;2022-08-21T17:31:30;12.30;;;10.57;;
11048;SDS011;5577;42.706;23.160;2022-08-21T17:34:15;11.20;;;10.00;;
11048;SDS011;5577;42.706;23.160;2022-08-21T17:36:58;12.50;;;9.77;;
11048;SDS011;5577;42.706;23.160;2022-08-21T17:39:43;10.80;;;9.80;;
11048;SDS011;5577;42.706;23.160;2022-08-21T17:42:27;13.87;;;9.53;;
11048;SDS011;5577;42.706;23.160;2022-08-21T17:45:14;12.30;;;9.63;;
11048;SDS011;5577;42.706;23.160;2022-08-21T17:48:00;13.73;;;10.10;;
11048;SDS011;5577;42.706;23.160;2022-08-21T17:50:44;11.47;;;9.40;;
11048;SDS011;5577;42.706;23.160;2022-08-21T17:53:28;11.67;;;9.93;;
11048;SDS011;5577;42.706;23.160;2022-08-21T17:56:13;13.90;;;10.83;;
11048;SDS011;5577;42.706;23.160;2022-08-21T17:58:58;18.00;;;10.90;;
11048;SDS011;5577;42.706;23.160;2022-08-21T18:01:43;13.80;;;10.40;;
11048;SDS011;5577;42.706;23.160;2022-08-21T18:04:29;14.23;;;11.13;;
11048;SDS011;5577;42.706;23.160;2022-08-21T18:07:13;15.87;;;12.20;;
11048;SDS011;5577;42.706;23.160;2022-08-21T18:10:00;13.60;;;11.07;;
11048;SDS011;5577;42.706;23.160;2022-08-21T18:12:47;15.37;;;11.40;;
11048;SDS011;5577;42.706;23.160;2022-08-21T18:15:31;15.73;;;12.00;;
11048;SDS011;5577;42.706;23.160;2022-08-21T18:18:16;15.23;;;12.03;;
11048;SDS011;5577;42.706;23.160;2022-08-21T18:21:00;13.73;;;11.37;;
11048;SDS011;5577;42.706;23.160;2022-08-21T18:23:45;15.27;;;11.90;;
11048;SDS011;5577;42.706;23.160;2022-08-21T18:26:30;12.97;;;11.67;;